createdAt,value
2019-04-10T00:01:46.539Z,11.97
2019-04-10T00:04:14.665Z,12.13
2019-04-10T00:06:41.699Z,12.13
2019-04-10T00:09:08.518Z,12.93
2019-04-10T00:11:35.096Z,12.03
2019-04-10T00:14:02.951Z,12.40
2019-04-10T00:16:29.890Z,12.07
2019-04-10T00:18:56.724Z,13.80
2019-04-10T00:21:25.136Z,14.03
2019-04-10T00:23:51.910Z,12.73
2019-04-10T00:26:18.562Z,15.37
2019-04-10T00:28:45.608Z,15.20
2019-04-10T00:31:13.692Z,14.60
2019-04-10T00:33:40.977Z,14.80
2019-04-10T00:36:08.015Z,14.83
2019-04-10T00:38:35.407Z,15.93
2019-04-10T00:41:02.069Z,14.70
2019-04-10T00:43:28.869Z,14.97
2019-04-10T00:45:55.790Z,17.40
2019-04-10T00:48:22.332Z,16.23
2019-04-10T00:50:50.855Z,17.50
2019-04-10T00:53:19.010Z,16.20
2019-04-10T00:55:46.109Z,17.07
2019-04-10T00:58:14.120Z,17.57
2019-04-10T01:00:41.279Z,17.13
2019-04-10T01:03:13.477Z,18.03
2019-04-10T01:05:40.362Z,17.60
2019-04-10T01:08:07.047Z,18.40
2019-04-10T01:10:34.578Z,19.10
2019-04-10T01:13:01.406Z,18.80
2019-04-10T01:15:28.821Z,18.20
2019-04-10T01:17:55.544Z,19.43
2019-04-10T01:20:23.806Z,19.10
2019-04-10T01:22:51.896Z,18.73
2019-04-10T01:25:18.733Z,18.53
2019-04-10T01:27:45.510Z,18.10
2019-04-10T01:30:12.527Z,18.77
2019-04-10T01:32:39.759Z,18.03
2019-04-10T01:35:07.780Z,18.10
2019-04-10T01:37:46.642Z,19.20
2019-04-10T01:40:04.674Z,17.80
2019-04-10T01:42:32.396Z,18.57
2019-04-10T01:45:00.757Z,19.00
2019-04-10T01:47:27.485Z,17.13
2019-04-10T01:49:54.150Z,17.80
2019-04-10T01:52:20.918Z,17.50
2019-04-10T01:54:47.882Z,18.07
2019-04-10T01:57:14.714Z,18.10
2019-04-10T01:59:42.446Z,18.20
2019-04-10T02:02:16.898Z,17.43
2019-04-10T02:04:43.835Z,18.03
2019-04-10T02:07:10.753Z,17.83
2019-04-10T02:09:37.396Z,18.83
2019-04-10T02:12:04.167Z,18.03
2019-04-10T02:14:32.102Z,18.37
2019-04-10T02:16:59.094Z,17.50
2019-04-10T02:19:26.594Z,16.70
2019-04-10T02:21:53.235Z,17.00
2019-04-10T02:24:19.970Z,17.03
2019-04-10T02:26:46.668Z,18.20
2019-04-10T02:29:13.469Z,18.40
2019-04-10T02:31:40.494Z,17.53
2019-04-10T02:34:09.066Z,19.17
2019-04-10T02:36:38.494Z,19.43
2019-04-10T02:39:19.082Z,18.30
2019-04-10T02:41:34.654Z,17.80
2019-04-10T02:44:03.455Z,19.13
2019-04-10T02:46:31.451Z,18.10
2019-04-10T02:49:00.208Z,20.27
2019-04-10T02:51:27.970Z,20.03
2019-04-10T02:53:56.082Z,21.43
2019-04-10T02:56:24.951Z,22.57
2019-04-10T02:58:51.733Z,23.77
2019-04-10T03:01:19.843Z,23.10
2019-04-10T03:03:46.585Z,23.63
2019-04-10T03:06:13.504Z,23.20
2019-04-10T03:08:54.962Z,24.47
2019-04-10T03:11:12.209Z,24.13
2019-04-10T03:13:38.230Z,24.10
2019-04-10T03:16:05.579Z,24.10
2019-04-10T03:18:32.692Z,24.33
2019-04-10T03:20:59.649Z,23.73
2019-04-10T03:23:26.725Z,24.10
2019-04-10T03:25:53.357Z,24.93
2019-04-10T03:28:19.976Z,25.80
2019-04-10T03:30:48.761Z,24.80
2019-04-10T03:33:47.300Z,23.77
2019-04-10T03:36:13.612Z,25.20
2019-04-10T03:38:53.943Z,25.93
2019-04-10T03:41:08.913Z,25.30
2019-04-10T03:43:36.112Z,26.20
2019-04-10T03:46:03.352Z,25.33
2019-04-10T03:48:31.314Z,26.70
2019-04-10T03:50:58.723Z,26.77
2019-04-10T03:53:26.413Z,26.43
2019-04-10T03:55:53.668Z,27.73
2019-04-10T03:58:20.970Z,27.47
2019-04-10T04:00:47.695Z,23.53
2019-04-10T04:03:14.421Z,26.37
2019-04-10T04:05:42.490Z,26.63
2019-04-10T04:08:09.470Z,24.93
2019-04-10T04:10:37.090Z,27.27
2019-04-10T04:13:05.968Z,25.83
2019-04-10T04:15:33.750Z,26.67
2019-04-10T04:18:02.414Z,26.97
2019-04-10T04:20:30.713Z,24.77
2019-04-10T04:22:57.557Z,27.33
2019-04-10T04:25:26.561Z,27.20
2019-04-10T04:27:53.876Z,27.13
2019-04-10T04:30:20.839Z,27.03
2019-04-10T04:32:48.364Z,25.93
2019-04-10T04:35:15.431Z,27.73
2019-04-10T04:37:44.290Z,29.10
2019-04-10T04:40:17.412Z,27.63
2019-04-10T04:43:02.257Z,24.87
2019-04-10T04:45:30.005Z,24.27
2019-04-10T04:47:57.628Z,24.70
2019-04-10T04:50:24.863Z,25.40
2019-04-10T04:52:52.229Z,28.57
2019-04-10T04:55:19.769Z,26.43
2019-04-10T04:57:47.150Z,27.43
2019-04-10T05:00:15.529Z,26.53
2019-04-10T05:02:44.784Z,26.67
2019-04-10T05:05:11.915Z,27.10
2019-04-10T05:07:39.708Z,26.87
2019-04-10T05:10:07.193Z,28.10
2019-04-10T05:12:34.165Z,28.57
2019-04-10T05:15:02.607Z,28.37
2019-04-10T05:17:30.871Z,27.87
2019-04-10T05:19:58.705Z,28.73
2019-04-10T05:22:26.471Z,26.70
2019-04-10T05:24:57.213Z,27.73
2019-04-10T05:27:29.591Z,28.27
2019-04-10T05:30:09.268Z,28.77
2019-04-10T05:32:39.983Z,28.90
2019-04-10T05:35:12.795Z,27.10
2019-04-10T05:37:48.129Z,29.30
2019-04-10T05:40:20.165Z,28.33
2019-04-10T05:42:49.152Z,27.03
2019-04-10T05:45:17.037Z,26.77
2019-04-10T05:47:44.464Z,28.47
2019-04-10T05:50:13.061Z,29.73
2019-04-10T05:52:40.481Z,29.47
2019-04-10T05:55:08.537Z,30.20
2019-04-10T05:57:35.425Z,29.90
2019-04-10T06:00:04.664Z,30.60
2019-04-10T06:02:32.105Z,26.53
2019-04-10T06:04:59.970Z,27.87
2019-04-10T06:07:49.358Z,27.77
2019-04-10T06:10:24.570Z,28.83
2019-04-10T06:12:56.542Z,28.47
2019-04-10T06:15:26.522Z,26.83
2019-04-10T06:18:04.976Z,27.83
2019-04-10T06:20:36.129Z,28.33
2019-04-10T06:23:09.474Z,28.07
2019-04-10T06:25:52.396Z,29.77
2019-04-10T06:28:31.027Z,28.27
2019-04-10T06:31:06.236Z,28.63
2019-04-10T06:33:36.104Z,25.30
2019-04-10T06:36:05.356Z,27.83
2019-04-10T06:38:35.769Z,27.20
2019-04-10T06:41:04.152Z,28.27
2019-04-10T06:43:33.080Z,28.47
2019-04-10T06:46:00.044Z,27.43
2019-04-10T06:48:34.112Z,29.13
2019-04-10T06:51:02.047Z,27.83
2019-04-10T06:53:29.030Z,29.00
2019-04-10T06:55:56.535Z,28.17
2019-04-10T06:58:23.646Z,26.97
2019-04-10T07:00:53.222Z,26.93
2019-04-10T07:03:19.098Z,27.47
2019-04-10T07:06:06.274Z,26.40
2019-04-10T07:08:27.467Z,26.97
2019-04-10T07:11:02.011Z,25.87
2019-04-10T07:13:23.805Z,25.43
2019-04-10T07:15:54.397Z,25.60
2019-04-10T07:18:20.675Z,25.00
2019-04-10T07:20:48.969Z,26.43
2019-04-10T07:23:23.311Z,25.13
2019-04-10T07:25:45.790Z,26.10
2019-04-10T07:28:13.720Z,25.80
2019-04-10T07:30:40.717Z,25.70
2019-04-10T07:33:07.669Z,25.03
2019-04-10T07:35:35.769Z,23.80
2019-04-10T07:38:03.099Z,23.53
2019-04-10T07:40:33.871Z,26.20
2019-04-10T07:42:58.797Z,25.47
2019-04-10T07:45:27.203Z,24.07
2019-04-10T07:47:55.895Z,25.03
2019-04-10T07:50:22.763Z,25.03
2019-04-10T07:52:49.987Z,24.50
2019-04-10T07:55:16.965Z,26.57
2019-04-10T07:57:53.216Z,24.63
2019-04-10T08:00:20.196Z,25.17
2019-04-10T08:02:49.181Z,24.20
2019-04-10T08:05:16.645Z,22.97
2019-04-10T08:07:43.463Z,21.90
2019-04-10T08:10:11.988Z,21.63
2019-04-10T08:12:47.336Z,21.40
2019-04-10T08:15:09.151Z,21.70
2019-04-10T08:17:41.849Z,17.87
2019-04-10T08:20:15.504Z,19.17
2019-04-10T08:22:47.579Z,19.73
2019-04-10T08:25:20.315Z,19.87
2019-04-10T08:27:52.342Z,19.07
2019-04-10T08:30:50.402Z,19.03
2019-04-10T08:33:19.636Z,18.63
2019-04-10T08:35:57.658Z,16.80
2019-04-10T08:38:29.973Z,17.13
2019-04-10T08:41:05.185Z,17.27
2019-04-10T08:43:35.435Z,16.30
2019-04-10T08:46:03.507Z,16.10
2019-04-10T08:48:31.512Z,15.47
2019-04-10T08:50:58.882Z,14.57
2019-04-10T08:53:27.219Z,14.60
2019-04-10T08:55:54.976Z,15.73
2019-04-10T08:58:22.874Z,14.23
2019-04-10T09:00:51.462Z,14.13
2019-04-10T09:03:19.028Z,14.57
2019-04-10T09:05:46.954Z,13.43
2019-04-10T09:08:15.106Z,13.10
2019-04-10T09:10:42.772Z,12.53
2019-04-10T09:13:10.431Z,12.80
2019-04-10T09:15:38.122Z,12.07
2019-04-10T09:18:06.143Z,12.93
2019-04-10T09:20:33.147Z,13.80
2019-04-10T09:23:19.973Z,12.77
2019-04-10T09:25:28.536Z,12.57
2019-04-10T09:27:55.243Z,13.93
2019-04-10T09:30:22.206Z,11.50
2019-04-10T09:32:48.998Z,12.70
2019-04-10T09:35:16.374Z,13.37
2019-04-10T09:37:43.533Z,13.30
2019-04-10T09:40:11.981Z,13.07
2019-04-10T09:42:39.599Z,11.77
2019-04-10T09:45:09.331Z,12.93
2019-04-10T09:47:36.279Z,14.07
2019-04-10T09:50:05.677Z,13.17
2019-04-10T09:52:37.601Z,13.80
2019-04-10T09:55:07.539Z,12.87
2019-04-10T09:57:37.049Z,11.83
2019-04-10T10:00:07.763Z,11.83
2019-04-10T10:02:36.117Z,11.63
2019-04-10T10:05:06.372Z,12.33
2019-04-10T10:07:36.869Z,12.03
2019-04-10T10:10:08.799Z,12.13
2019-04-10T10:12:45.007Z,13.13
2019-04-10T10:15:15.287Z,12.90
2019-04-10T10:17:47.417Z,11.97
2019-04-10T10:20:17.491Z,11.17
2019-04-10T10:22:49.434Z,12.47
2019-04-10T10:25:23.487Z,11.83
2019-04-10T10:27:52.353Z,11.63
2019-04-10T10:30:23.655Z,10.93
2019-04-10T10:32:53.442Z,11.67
2019-04-10T10:35:23.133Z,11.47
2019-04-10T10:37:54.727Z,11.60
2019-04-10T10:40:23.836Z,11.90
2019-04-10T10:42:56.146Z,11.50
2019-04-10T10:45:27.344Z,11.77
2019-04-10T10:48:01.641Z,11.10
2019-04-10T10:50:34.521Z,11.43
2019-04-10T10:53:06.178Z,11.57
2019-04-10T10:55:37.733Z,11.40
2019-04-10T10:58:08.106Z,12.60
2019-04-10T11:00:41.132Z,11.67
2019-04-10T11:03:14.481Z,11.70
2019-04-10T11:05:48.586Z,10.57
2019-04-10T11:08:19.150Z,11.23
2019-04-10T11:10:53.480Z,10.57
2019-04-10T11:13:19.106Z,10.93
2019-04-10T11:15:48.489Z,10.77
2019-04-10T11:18:19.677Z,10.00
2019-04-10T11:20:48.496Z,9.23
2019-04-10T11:23:19.645Z,9.13
2019-04-10T11:25:50.360Z,8.07
2019-04-10T11:28:18.710Z,8.30
2019-04-10T11:30:47.432Z,7.87
2019-04-10T11:33:17.634Z,9.07
2019-04-10T11:35:45.895Z,8.17
2019-04-10T11:38:13.532Z,8.37
2019-04-10T11:40:45.742Z,8.03
2019-04-10T11:43:13.565Z,7.47
2019-04-10T11:45:45.455Z,7.53
2019-04-10T11:48:10.293Z,7.70
2019-04-10T11:50:38.460Z,8.10
2019-04-10T11:53:06.952Z,7.60
2019-04-10T11:55:43.183Z,7.73
2019-04-10T11:58:03.073Z,8.43
2019-04-10T12:00:45.426Z,7.83
2019-04-10T12:03:08.724Z,7.67
2019-04-10T12:05:36.632Z,6.50
2019-04-10T12:08:27.956Z,6.60
2019-04-10T12:13:01.929Z,7.03
2019-04-10T12:15:28.914Z,8.20
2019-04-10T12:17:55.564Z,8.23
2019-04-10T12:20:22.208Z,7.00
2019-04-10T12:22:48.980Z,6.20
2019-04-10T12:25:16.116Z,6.53
2019-04-10T12:27:45.335Z,6.30
2019-04-10T12:30:13.236Z,5.97
2019-04-10T12:32:41.054Z,6.03
2019-04-10T12:35:10.929Z,6.63
2019-04-10T12:37:39.138Z,6.80
2019-04-10T12:40:07.697Z,7.20
2019-04-10T12:46:30.315Z,7.40
2019-04-10T12:48:59.748Z,7.60
2019-04-10T12:51:26.033Z,7.43
2019-04-10T12:53:55.929Z,7.00
2019-04-10T12:56:24.034Z,6.53
2019-04-10T12:58:53.041Z,6.07
2019-04-10T13:01:20.528Z,6.43
2019-04-10T13:03:47.797Z,6.10
2019-04-10T13:06:16.294Z,6.70
2019-04-10T13:08:57.116Z,6.70
2019-04-10T13:11:12.086Z,6.10
2019-04-10T13:13:39.066Z,7.00
2019-04-10T13:16:05.882Z,7.00
2019-04-10T13:18:32.612Z,7.03
2019-04-10T13:20:59.693Z,6.43
2019-04-10T13:23:26.693Z,7.37
2019-04-10T13:25:59.806Z,7.07
2019-04-10T13:28:21.875Z,7.10
2019-04-10T13:30:54.910Z,6.63
2019-04-10T13:33:22.687Z,6.27
2019-04-10T13:35:53.784Z,6.40
2019-04-10T13:38:30.169Z,6.93
2019-04-10T13:40:59.820Z,7.00
2019-04-10T13:43:31.248Z,7.40
2019-04-10T13:46:02.606Z,6.63
2019-04-10T13:48:31.447Z,6.43
2019-04-10T13:51:03.365Z,6.20
2019-04-10T13:53:35.280Z,6.60
2019-04-10T13:56:06.606Z,6.17
2019-04-10T13:58:35.183Z,6.57
2019-04-10T14:01:09.611Z,6.30
2019-04-10T14:03:42.860Z,6.40
2019-04-10T14:06:15.083Z,6.50
2019-04-10T14:09:04.511Z,5.70
2019-04-10T14:11:13.192Z,6.57
2019-04-10T14:13:42.143Z,5.93
2019-04-10T14:16:09.328Z,5.80
2019-04-10T14:18:39.047Z,6.63
2019-04-10T14:21:11.201Z,6.00
2019-04-10T14:23:35.440Z,5.50
2019-04-10T14:26:42.083Z,6.30
2019-04-10T14:29:05.948Z,5.87
2019-04-10T14:31:38.590Z,7.17
2019-04-10T14:34:06.609Z,6.60
2019-04-10T14:36:33.938Z,5.67
2019-04-10T14:39:12.118Z,6.10
2019-04-10T14:41:33.857Z,6.10
2019-04-10T14:44:00.567Z,6.03
2019-04-10T14:46:28.334Z,5.73
2019-04-10T14:48:58.317Z,6.10
2019-04-10T14:51:25.267Z,6.30
2019-04-10T14:53:56.099Z,6.37
2019-04-10T14:56:26.853Z,5.70
2019-04-10T14:58:54.875Z,6.17
2019-04-10T15:01:23.980Z,5.73
2019-04-10T15:03:51.354Z,6.40
2019-04-10T15:06:21.942Z,6.10
2019-04-10T15:08:50.303Z,6.40
2019-04-10T15:11:20.473Z,6.07
2019-04-10T15:13:48.725Z,6.30
2019-04-10T15:16:16.688Z,6.03
2019-04-10T15:18:43.969Z,6.93
2019-04-10T15:21:12.394Z,6.30
2019-04-10T15:23:39.401Z,6.70
2019-04-10T15:26:06.336Z,6.13
2019-04-10T15:28:36.055Z,6.10
2019-04-10T15:31:04.610Z,6.13
2019-04-10T15:33:32.987Z,5.60
2019-04-10T15:35:59.937Z,6.60
2019-04-10T15:38:27.104Z,6.60
2019-04-10T15:40:56.692Z,6.37
2019-04-10T15:43:26.134Z,6.90
2019-04-10T15:45:52.772Z,6.70
2019-04-10T15:48:20.869Z,6.50
2019-04-10T15:50:49.799Z,6.07
2019-04-10T15:53:16.497Z,5.90
2019-04-10T15:55:43.331Z,6.70
2019-04-10T15:58:10.795Z,6.87
2019-04-10T16:00:38.188Z,6.73
2019-04-10T16:03:05.047Z,6.60
2019-04-10T16:05:31.902Z,6.27
2019-04-10T16:07:58.739Z,6.30
2019-04-10T16:10:46.282Z,6.77
2019-04-10T16:13:32.567Z,6.33
2019-04-10T16:16:21.255Z,6.50
2019-04-10T16:18:49.129Z,6.70
2019-04-10T16:21:16.166Z,6.17
2019-04-10T16:23:47.782Z,7.37
2019-04-10T16:26:15.212Z,7.30
2019-04-10T16:28:43.617Z,6.33
2019-04-10T16:31:10.936Z,6.67
2019-04-10T16:33:37.604Z,7.57
2019-04-10T16:36:05.256Z,6.07
2019-04-10T16:38:32.983Z,6.73
2019-04-10T16:41:00.506Z,6.93
2019-04-10T16:43:28.509Z,6.13
2019-04-10T16:45:55.273Z,6.27
2019-04-10T16:48:28.244Z,6.67
2019-04-10T16:50:56.102Z,7.07
2019-04-10T16:53:23.134Z,7.67
2019-04-10T16:55:51.060Z,6.93
2019-04-10T16:58:18.746Z,6.60
2019-04-10T17:00:47.351Z,6.47
2019-04-10T17:03:14.224Z,7.40
2019-04-10T17:05:41.879Z,6.03
2019-04-10T17:08:09.775Z,6.37
2019-04-10T17:10:38.691Z,6.57
2019-04-10T17:13:07.259Z,6.87
2019-04-10T17:15:34.355Z,6.60
2019-04-10T17:18:03.052Z,6.07
2019-04-10T17:20:34.323Z,6.47
2019-04-10T17:23:00.984Z,5.93
2019-04-10T17:25:30.410Z,6.73
2019-04-10T17:28:01.838Z,5.83
2019-04-10T17:30:29.507Z,6.10
2019-04-10T17:32:56.585Z,5.57
2019-04-10T17:35:23.399Z,5.37
2019-04-10T17:37:50.778Z,5.49
2019-04-10T17:40:29.791Z,5.13
2019-04-10T17:42:58.860Z,5.50
2019-04-10T17:45:32.669Z,4.50
2019-04-10T17:48:01.156Z,5.40
2019-04-10T17:50:28.020Z,5.50
2019-04-10T17:52:54.972Z,5.53
2019-04-10T17:55:23.236Z,5.70
2019-04-10T17:57:52.661Z,5.73
2019-04-10T18:00:31.283Z,5.30
2019-04-10T18:03:01.231Z,5.20
2019-04-10T18:05:28.770Z,5.20
2019-04-10T18:07:56.566Z,5.50
2019-04-10T18:10:39.567Z,5.10
2019-04-10T18:13:02.985Z,5.57
2019-04-10T18:15:32.992Z,5.40
2019-04-10T18:17:59.924Z,5.63
2019-04-10T18:20:26.620Z,5.70
2019-04-10T18:22:56.272Z,5.53
2019-04-10T18:25:23.355Z,5.60
2019-04-10T18:27:52.378Z,5.90
2019-04-10T18:30:19.561Z,5.57
2019-04-10T18:32:47.630Z,5.30
2019-04-10T18:35:14.564Z,5.47
2019-04-10T18:37:41.762Z,5.33
2019-04-10T18:40:08.524Z,5.17
2019-04-10T18:42:35.830Z,5.70
2019-04-10T18:45:04.343Z,5.93
2019-04-10T18:47:36.423Z,5.53
2019-04-10T18:50:02.939Z,5.37
2019-04-10T18:52:29.996Z,5.53
2019-04-10T18:54:57.049Z,5.70
2019-04-10T18:57:24.584Z,5.50
2019-04-10T19:00:12.321Z,5.27
2019-04-10T19:02:57.395Z,5.60
2019-04-10T19:05:34.783Z,6.07
2019-04-10T19:08:03.076Z,5.73
2019-04-10T19:10:30.672Z,5.20
2019-04-10T19:12:57.571Z,5.33
2019-04-10T19:15:27.070Z,5.47
2019-04-10T19:17:55.177Z,6.03
2019-04-10T19:20:23.298Z,7.10
2019-04-10T19:22:51.051Z,5.90
2019-04-10T19:25:20.991Z,6.43
2019-04-10T19:27:48.601Z,6.57
2019-04-10T19:30:33.075Z,7.37
2019-04-10T19:33:01.692Z,5.93
2019-04-10T19:35:35.343Z,6.30
2019-04-10T19:38:03.166Z,5.83
2019-04-10T19:40:38.682Z,5.47
2019-04-10T19:43:06.056Z,5.87
2019-04-10T19:45:34.179Z,6.43
2019-04-10T19:48:01.142Z,5.40
2019-04-10T19:50:29.684Z,6.10
2019-04-10T19:52:57.493Z,5.70
2019-04-10T19:55:24.513Z,6.33
2019-04-10T19:57:51.423Z,5.60
2019-04-10T20:00:22.140Z,6.57
2019-04-10T20:02:51.094Z,5.20
2019-04-10T20:05:23.411Z,6.20
2019-04-10T20:07:51.385Z,6.97
2019-04-10T20:10:19.188Z,7.50
2019-04-10T20:12:45.793Z,6.03
2019-04-10T20:15:14.105Z,6.80
2019-04-10T20:17:40.954Z,6.30
2019-04-10T20:20:08.884Z,6.20
2019-04-10T20:22:36.902Z,7.23
2019-04-10T20:25:03.942Z,6.50
2019-04-10T20:27:30.703Z,5.57
2019-04-10T20:29:57.614Z,6.50
2019-04-10T20:32:24.174Z,5.70
2019-04-10T20:34:51.955Z,5.93
2019-04-10T20:37:18.889Z,6.40
2019-04-10T20:39:47.939Z,6.10
2019-04-10T20:42:16.206Z,5.67
2019-04-10T20:44:43.144Z,6.13
2019-04-10T20:47:10.798Z,5.83
2019-04-10T20:49:38.438Z,5.63
2019-04-10T20:52:08.274Z,5.53
2019-04-10T20:54:35.235Z,5.83
2019-04-10T20:57:01.870Z,5.67
2019-04-10T20:59:30.492Z,6.23
2019-04-10T21:01:57.819Z,6.97
2019-04-10T21:04:25.432Z,5.77
2019-04-10T21:06:52.528Z,6.10
2019-04-10T21:09:19.195Z,6.20
2019-04-10T21:11:58.064Z,7.07
2019-04-10T21:14:16.115Z,7.17
2019-04-10T21:16:44.214Z,6.33
2019-04-10T21:19:14.614Z,6.60
2019-04-10T21:21:41.449Z,6.30
2019-04-10T21:24:09.258Z,7.23
2019-04-10T21:26:38.729Z,5.80
2019-04-10T21:29:09.465Z,6.00
2019-04-10T21:31:50.553Z,7.10
2019-04-10T21:34:28.831Z,6.73
2019-04-10T21:36:57.621Z,5.87
2019-04-10T21:39:25.662Z,6.80
2019-04-10T21:41:53.532Z,6.13
2019-04-10T21:44:20.772Z,6.17
2019-04-10T21:46:48.616Z,6.00
2019-04-10T21:49:15.601Z,6.17
2019-04-10T21:51:42.834Z,5.80
2019-04-10T21:54:09.827Z,5.90
2019-04-10T21:56:37.285Z,7.00
2019-04-10T21:59:05.467Z,6.10
2019-04-10T22:01:32.526Z,6.03
2019-04-10T22:04:00.539Z,6.07
2019-04-10T22:06:59.306Z,6.03
2019-04-10T22:09:53.094Z,5.90
2019-04-10T22:12:30.418Z,6.20
2019-04-10T22:14:52.526Z,6.07
2019-04-10T22:17:19.262Z,7.03
2019-04-10T22:19:47.378Z,5.67
2019-04-10T22:22:18.127Z,6.00
2019-04-10T22:24:50.577Z,5.23
2019-04-10T22:27:19.016Z,5.70
2019-04-10T22:29:46.910Z,5.70
2019-04-10T22:32:14.650Z,5.30
2019-04-10T22:34:42.068Z,5.70
2019-04-10T22:37:09.909Z,6.33
2019-04-10T22:39:39.617Z,5.07
2019-04-10T22:42:07.515Z,5.40
2019-04-10T22:44:41.991Z,5.20
2019-04-10T22:47:05.095Z,6.03
2019-04-10T22:49:32.823Z,5.87
2019-04-10T22:52:00.611Z,5.30
2019-04-10T22:54:28.462Z,5.60
2019-04-10T22:56:56.540Z,5.07
2019-04-10T22:59:24.236Z,5.87
2019-04-10T23:02:00.446Z,5.27
2019-04-10T23:04:20.158Z,6.23
2019-04-10T23:06:47.236Z,5.93
2019-04-10T23:09:13.921Z,5.37
2019-04-10T23:11:44.653Z,5.30
2019-04-10T23:14:10.502Z,5.30
2019-04-10T23:16:37.948Z,5.57
2019-04-10T23:19:05.690Z,5.70
2019-04-10T23:21:32.503Z,5.40
2019-04-10T23:24:01.672Z,5.23
2019-04-10T23:26:29.136Z,4.80
2019-04-10T23:28:56.039Z,5.27
2019-04-10T23:31:26.091Z,4.17
2019-04-10T23:33:52.882Z,5.07
2019-04-10T23:36:20.221Z,5.07
2019-04-10T23:38:47.982Z,5.30
2019-04-10T23:41:15.674Z,4.77
2019-04-10T23:43:46.019Z,4.57
2019-04-10T23:46:13.056Z,5.23
2019-04-10T23:48:39.664Z,5.40
2019-04-10T23:51:07.069Z,5.57
2019-04-10T23:53:37.132Z,6.20
2019-04-10T23:56:04.291Z,5.53
2019-04-10T23:58:31.810Z,5.00
